createdAt,value
2023-05-14T00:04:54.404Z,69.54
2023-05-14T00:09:58.886Z,69.78
2023-05-14T00:15:01.790Z,69.96
2023-05-14T00:20:07.333Z,70.49
2023-05-14T00:25:10.310Z,70.79
2023-05-14T00:30:13.302Z,71.15
2023-05-14T00:35:16.390Z,71.53
2023-05-14T00:40:20.046Z,71.34
2023-05-14T00:45:23.196Z,71.69
2023-05-14T00:50:26.608Z,71.95
2023-05-14T00:55:30.974Z,71.95
2023-05-14T01:00:34.325Z,71.94
2023-05-14T01:05:56.475Z,71.83
2023-05-14T01:11:06.623Z,71.96
2023-05-14T01:16:14.364Z,72.40
2023-05-14T01:21:36.084Z,72.54
2023-05-14T01:26:38.932Z,72.48
2023-05-14T01:31:44.515Z,72.90
2023-05-14T01:36:48.915Z,73.10
2023-05-14T01:41:52.737Z,73.31
2023-05-14T01:46:55.972Z,73.29
2023-05-14T01:51:58.856Z,73.35
2023-05-14T01:57:01.669Z,73.47
2023-05-14T02:02:04.707Z,73.79
2023-05-14T02:07:07.589Z,74.00
2023-05-14T02:12:11.844Z,74.22
2023-05-14T02:17:17.706Z,74.44
2023-05-14T02:22:20.529Z,74.35
2023-05-14T02:27:23.338Z,74.62
2023-05-14T02:32:27.967Z,74.64
2023-05-14T02:37:31.539Z,74.58
2023-05-14T02:42:34.939Z,74.84
2023-05-14T02:47:38.361Z,74.77
2023-05-14T02:52:41.517Z,74.50
2023-05-14T02:57:44.409Z,74.84
2023-05-14T03:02:47.295Z,75.06
2023-05-14T03:07:53.777Z,74.84
2023-05-14T03:12:56.677Z,74.70
2023-05-14T03:17:59.570Z,74.91
2023-05-14T03:23:02.776Z,74.51
2023-05-14T03:28:05.594Z,74.38
2023-05-14T03:33:08.533Z,73.99
2023-05-14T03:38:11.367Z,73.76
2023-05-14T03:43:14.172Z,73.84
2023-05-14T03:48:17.167Z,73.88
2023-05-14T03:53:21.038Z,73.49
2023-05-14T03:58:23.870Z,72.80
2023-05-14T04:03:26.795Z,72.07
2023-05-14T04:08:29.899Z,71.59
2023-05-14T04:13:32.734Z,71.43
2023-05-14T04:18:35.936Z,71.40
2023-05-14T04:23:38.780Z,71.14
2023-05-14T04:28:41.768Z,69.10
2023-05-14T04:33:44.619Z,61.38
2023-05-14T04:38:47.384Z,53.60
2023-05-14T04:43:51.021Z,45.74
2023-05-14T04:48:53.864Z,41.37
2023-05-14T04:53:56.732Z,36.24
2023-05-14T04:58:59.568Z,32.89
2023-05-14T05:04:02.460Z,30.21
2023-05-14T05:09:05.456Z,29.93
2023-05-14T05:14:08.311Z,31.86
2023-05-14T05:19:11.291Z,34.55
2023-05-14T05:24:14.268Z,36.87
2023-05-14T05:29:17.101Z,39.16
2023-05-14T05:34:21.247Z,40.59
2023-05-14T05:39:24.084Z,41.47
2023-05-14T05:44:27.104Z,42.54
2023-05-14T05:49:39.450Z,43.49
2023-05-14T05:54:42.287Z,44.37
2023-05-14T05:59:45.127Z,45.05
2023-05-14T06:04:48.173Z,45.01
2023-05-14T06:09:51.417Z,45.60
2023-05-14T06:14:57.854Z,45.94
2023-05-14T06:20:00.841Z,45.75
2023-05-14T06:25:05.715Z,45.62
2023-05-14T06:30:09.307Z,45.43
2023-05-14T06:35:12.152Z,41.05
2023-05-14T06:40:17.918Z,34.59
2023-05-14T06:45:20.811Z,30.75
2023-05-14T06:50:24.071Z,27.62
2023-05-14T06:55:27.371Z,25.19
2023-05-14T07:00:30.674Z,23.49
2023-05-14T07:05:33.671Z,21.66
2023-05-14T07:10:36.554Z,20.77
2023-05-14T07:15:39.414Z,19.69
2023-05-14T07:20:42.398Z,19.25
2023-05-14T07:25:45.452Z,17.78
2023-05-14T07:30:48.325Z,17.33
2023-05-14T07:35:52.465Z,16.90
2023-05-14T07:40:55.414Z,16.73
2023-05-14T07:45:58.280Z,16.47
2023-05-14T07:51:01.234Z,16.23
2023-05-14T07:56:04.265Z,16.17
2023-05-14T08:01:09.241Z,15.91
2023-05-14T08:06:12.299Z,16.49
2023-05-14T08:11:15.576Z,16.37
2023-05-14T08:16:18.561Z,16.42
2023-05-14T08:21:21.690Z,17.11
2023-05-14T08:26:24.460Z,17.31
2023-05-14T08:31:27.348Z,17.10
2023-05-14T08:36:30.395Z,17.82
2023-05-14T08:41:33.297Z,17.93
2023-05-14T08:46:39.250Z,18.09
2023-05-14T08:51:44.630Z,18.23
2023-05-14T08:56:48.190Z,18.66
2023-05-14T09:01:55.059Z,18.70
2023-05-14T09:07:01.619Z,18.94
2023-05-14T09:12:06.279Z,19.64
2023-05-14T09:17:09.181Z,19.40
2023-05-14T09:22:14.553Z,19.47
2023-05-14T09:27:21.439Z,19.61
2023-05-14T09:32:24.461Z,20.79
2023-05-14T09:37:28.744Z,21.55
2023-05-14T09:42:33.131Z,22.02
2023-05-14T09:47:40.149Z,22.59
2023-05-14T09:52:43.113Z,23.06
2023-05-14T09:57:46.028Z,22.33
2023-05-14T10:02:54.061Z,22.68
2023-05-14T10:08:05.722Z,22.62
2023-05-14T10:13:14.944Z,23.16
2023-05-14T10:18:25.437Z,23.14
2023-05-14T10:23:31.568Z,22.91
2023-05-14T10:28:36.940Z,22.98
2023-05-14T10:33:51.081Z,22.84
2023-05-14T10:38:57.815Z,22.96
2023-05-14T10:44:12.078Z,23.24
2023-05-14T10:49:28.910Z,22.84
2023-05-14T10:54:39.518Z,22.88
2023-05-14T10:59:43.658Z,22.93
2023-05-14T11:04:59.904Z,23.90
2023-05-14T11:10:06.065Z,24.27
2023-05-14T11:15:12.465Z,24.25
2023-05-14T11:20:17.432Z,23.84
2023-05-14T11:25:23.174Z,23.29
2023-05-14T11:30:26.691Z,22.76
2023-05-14T11:35:29.708Z,22.97
2023-05-14T11:40:35.045Z,23.22
2023-05-14T11:45:39.506Z,23.57
2023-05-14T11:50:50.295Z,24.60
2023-05-14T11:55:58.832Z,27.80
2023-05-14T12:01:02.347Z,30.57
2023-05-14T12:06:08.277Z,30.19
2023-05-14T12:11:11.828Z,29.96
2023-05-14T12:16:15.002Z,29.29
2023-05-14T12:21:18.020Z,28.71
2023-05-14T12:26:25.949Z,28.00
2023-05-14T12:31:34.338Z,27.69
2023-05-14T12:36:37.559Z,27.42
2023-05-14T12:41:41.042Z,27.38
2023-05-14T12:46:45.010Z,27.45
2023-05-14T12:51:52.634Z,27.79
2023-05-14T12:57:01.482Z,27.71
2023-05-14T13:02:05.748Z,25.90
2023-05-14T13:07:10.124Z,26.20
2023-05-14T13:12:18.063Z,26.13
2023-05-14T13:17:23.579Z,27.59
2023-05-14T13:22:28.838Z,27.73
2023-05-14T13:27:32.509Z,26.87
2023-05-14T13:32:36.747Z,26.09
2023-05-14T13:37:40.354Z,25.51
2023-05-14T13:42:43.763Z,26.03
2023-05-14T13:47:48.726Z,26.19
2023-05-14T13:52:52.852Z,26.48
2023-05-14T13:57:57.452Z,26.53
2023-05-14T14:03:01.032Z,26.01
2023-05-14T14:08:17.801Z,26.06
2023-05-14T14:13:26.297Z,26.08
2023-05-14T14:18:31.487Z,26.10
2023-05-14T14:23:36.840Z,25.87
2023-05-14T14:28:41.166Z,25.60
2023-05-14T14:33:44.160Z,25.10
2023-05-14T14:38:47.167Z,24.91
2023-05-14T14:43:50.808Z,25.36
2023-05-14T14:48:56.077Z,24.74
2023-05-14T14:53:59.022Z,24.53
2023-05-14T14:59:03.573Z,23.53
2023-05-14T15:04:11.906Z,22.90
2023-05-14T15:09:15.318Z,23.44
2023-05-14T15:14:20.321Z,24.03
2023-05-14T15:19:24.592Z,23.91
2023-05-14T15:24:28.442Z,23.33
2023-05-14T15:29:33.281Z,23.34
2023-05-14T15:34:36.436Z,23.64
2023-05-14T15:39:39.522Z,23.72
2023-05-14T15:44:42.767Z,24.12
2023-05-14T15:49:46.658Z,23.35
2023-05-14T15:54:50.106Z,23.37
2023-05-14T15:59:53.222Z,23.57
2023-05-14T16:05:00.772Z,23.86
2023-05-14T16:10:05.422Z,24.13
2023-05-14T16:15:11.693Z,24.67
2023-05-14T16:20:15.423Z,24.97
2023-05-14T16:25:19.305Z,25.50
2023-05-14T16:30:22.827Z,25.89
2023-05-14T16:35:27.402Z,26.24
2023-05-14T16:40:30.761Z,26.48
2023-05-14T16:45:37.954Z,26.61
2023-05-14T16:50:43.286Z,26.69
2023-05-14T16:55:47.156Z,27.07
2023-05-14T17:00:51.046Z,27.65
2023-05-14T17:05:54.848Z,28.06
2023-05-14T17:10:59.868Z,28.46
2023-05-14T17:16:02.114Z,28.72
2023-05-14T17:21:06.050Z,29.12
2023-05-14T17:26:09.034Z,29.34
2023-05-14T17:31:11.954Z,29.70
2023-05-14T17:36:15.202Z,29.99
2023-05-14T17:41:18.160Z,30.29
2023-05-14T17:46:21.847Z,30.66
2023-05-14T17:51:25.371Z,31.21
2023-05-14T17:56:28.360Z,31.62
2023-05-14T18:01:31.727Z,31.95
2023-05-14T18:06:37.947Z,32.26
2023-05-14T18:11:44.360Z,32.64
2023-05-14T18:16:47.598Z,32.86
2023-05-14T18:21:50.895Z,33.11
2023-05-14T18:26:55.207Z,33.36
2023-05-14T18:31:58.618Z,33.75
2023-05-14T18:37:02.915Z,34.17
2023-05-14T18:42:06.833Z,34.41
2023-05-14T18:47:10.047Z,34.63
2023-05-14T18:52:13.573Z,34.92
2023-05-14T18:57:17.519Z,35.24
2023-05-14T19:02:21.248Z,35.59
2023-05-14T19:07:24.871Z,35.91
2023-05-14T19:12:28.214Z,36.67
2023-05-14T19:17:33.593Z,37.10
2023-05-14T19:22:38.151Z,37.56
2023-05-14T19:27:42.413Z,37.81
2023-05-14T19:32:50.621Z,38.05
2023-05-14T19:37:54.743Z,38.40
2023-05-14T19:42:58.161Z,38.70
2023-05-14T19:48:02.932Z,38.79
2023-05-14T19:53:06.119Z,39.01
2023-05-14T19:58:13.062Z,39.27
2023-05-14T20:03:17.840Z,39.85
2023-05-14T20:08:29.131Z,40.50
2023-05-14T20:13:32.858Z,40.88
2023-05-14T20:18:36.873Z,41.29
2023-05-14T20:23:43.230Z,41.89
2023-05-14T20:28:51.440Z,41.68
2023-05-14T20:33:56.974Z,42.23
2023-05-14T20:39:09.279Z,42.42
2023-05-14T20:44:19.159Z,42.85
2023-05-14T20:49:25.132Z,43.10
2023-05-14T20:54:28.899Z,43.97
2023-05-14T20:59:32.745Z,44.59
2023-05-14T21:04:35.688Z,45.13
2023-05-14T21:09:41.602Z,45.50
2023-05-14T21:14:46.913Z,45.82
2023-05-14T21:19:51.084Z,46.11
2023-05-14T21:24:56.037Z,46.71
2023-05-14T21:29:59.307Z,46.86
2023-05-14T21:35:03.264Z,46.95
2023-05-14T21:40:15.170Z,47.28
2023-05-14T21:45:18.117Z,47.54
2023-05-14T21:50:21.097Z,47.57
2023-05-14T21:55:24.183Z,47.80
2023-05-14T22:00:28.132Z,48.07
2023-05-14T22:05:31.426Z,48.24
2023-05-14T22:10:36.469Z,48.29
2023-05-14T22:15:42.156Z,48.66
2023-05-14T22:20:45.639Z,48.85
2023-05-14T22:25:48.993Z,49.08
2023-05-14T22:30:54.402Z,49.37
2023-05-14T22:35:57.474Z,49.64
2023-05-14T22:41:00.361Z,49.65
2023-05-14T22:46:03.586Z,49.65
2023-05-14T22:51:06.359Z,49.72
2023-05-14T22:56:09.209Z,49.99
2023-05-14T23:01:12.088Z,50.20
2023-05-14T23:06:15.058Z,50.43
2023-05-14T23:11:17.836Z,50.63
2023-05-14T23:16:20.933Z,51.00
2023-05-14T23:21:23.848Z,51.53
2023-05-14T23:26:26.884Z,51.84
2023-05-14T23:31:29.757Z,51.96
2023-05-14T23:36:32.675Z,52.03
2023-05-14T23:41:35.553Z,52.35
2023-05-14T23:46:38.483Z,52.53
2023-05-14T23:51:41.370Z,52.70
2023-05-14T23:56:44.361Z,53.04
